Time;durP1;ratioP1;P1;durP2;ratioP2;P2;SDS_P1;SDS_P2;PMS_P1;PMS_P2;Temp;Humidity;BMP_temperature;BMP_pressure;BME280_temperature;BME280_humidity;BME280_pressure;Samples;Min_cycle;Max_cycle;Signal;HPM_P1;HPM_P2
2021/03/07 00:01:05;;;;;;;;;;;;;;;21.61;23.58;99148.13;5062963;28;722;-77
2021/03/07 00:03:43;;;;;;;;;;;;;;;21.63;23.29;99142.84;5061834;28;905;-77
2021/03/07 00:06:08;;;;;;;;;;;;;;;21.31;23.88;99145.94;5062400;28;926;-77
2021/03/07 00:08:34;;;;;;;;;;;;;;;21.31;23.61;99158.06;5062151;28;976;-77
2021/03/07 00:11:00;;;;;;;;;;;;;;;21.28;23.89;99153.19;5045799;28;698;-77
2021/03/07 00:13:25;;;;;;;;;;;;;;;21.44;23.51;99149.88;5062107;28;626;-77
2021/03/07 00:15:51;;;;;;;;;;;;;;;22.04;22.75;99142.06;5063108;28;701;-77
2021/03/07 00:18:16;;;;;;;;;;;;;;;22.40;22.22;99148.16;5061588;28;1902;-77
2021/03/07 00:20:42;;;;;;;;;;;;;;;22.61;22.04;99141.44;5062450;28;947;-77
2021/03/07 00:23:07;;;;;;;;;;;;;;;22.76;21.66;99128.66;5062189;28;979;-77
2021/03/07 00:25:32;;;;;;;;;;;;;;;22.65;21.91;99142.19;5062484;28;658;-76
2021/03/07 00:27:58;;;;;;;;;;;;;;;22.08;22.31;99132.28;5062234;28;698;-77
2021/03/07 00:30:23;;;;;;;;;;;;;;;20.78;24.02;99135.72;5062520;28;671;-77
2021/03/07 00:32:49;;;;;;;;;;;;;;;21.30;23.41;99136.63;5061952;28;796;-77
2021/03/07 00:35:14;;;;;;;;;;;;;;;21.83;22.60;99126.88;5061719;28;899;-77
2021/03/07 00:37:40;;;;;;;;;;;;;;;21.38;23.59;99126.06;5062100;28;1004;-76
2021/03/07 00:40:06;;;;;;;;;;;;;;;21.27;23.58;99137.44;5061705;28;1901;-75
2021/03/07 00:42:31;;;;;;;;;;;;;;;21.37;23.41;99129.31;5061911;28;698;-77
2021/03/07 00:44:57;;;;;;;;;;;;;;;21.29;23.46;99134.97;5061415;28;893;-76
2021/03/07 00:47:23;;;;;;;;;;;;;;;21.01;23.99;99126.69;5061436;28;926;-77
2021/03/07 00:49:48;;;;;;;;;;;;;;;21.02;24.18;99128.28;5061685;28;890;-76
2021/03/07 00:52:14;;;;;;;;;;;;;;;20.45;24.67;99120.09;5062224;28;710;-76
2021/03/07 00:54:39;;;;;;;;;;;;;;;20.65;24.32;99120.44;5061628;28;873;-76
2021/03/07 00:57:05;;;;;;;;;;;;;;;20.74;24.56;99118.78;5061494;28;605;-76
2021/03/07 00:59:30;;;;;;;;;;;;;;;20.48;24.49;99122.13;5060894;28;1981;-77
2021/03/07 01:01:56;;;;;;;;;;;;;;;21.49;23.45;99123.13;5061304;28;921;-77
2021/03/07 01:04:22;;;;;;;;;;;;;;;21.29;23.34;99125.69;5061085;28;1010;-76
2021/03/07 01:06:48;;;;;;;;;;;;;;;20.49;24.74;99106.78;5061856;28;713;-76
2021/03/07 01:09:13;;;;;;;;;;;;;;;20.46;24.49;99114.03;5061097;28;720;-77
2021/03/07 01:11:39;;;;;;;;;;;;;;;20.88;23.97;99125.53;5061017;28;602;-77
2021/03/07 01:14:05;;;;;;;;;;;;;;;21.45;23.16;99119.50;5061079;28;1014;-77
2021/03/07 01:16:30;;;;;;;;;;;;;;;20.55;24.33;99119.25;5043682;28;935;-76
2021/03/07 01:18:56;;;;;;;;;;;;;;;20.66;24.28;99131.31;5060735;28;1981;-77
2021/03/07 01:21:21;;;;;;;;;;;;;;;20.45;24.38;99131.41;5061332;28;688;-77
2021/03/07 01:23:47;;;;;;;;;;;;;;;20.71;24.04;99124.44;5060787;28;666;-77
2021/03/07 01:26:12;;;;;;;;;;;;;;;21.02;24.08;99128.28;5061720;28;599;-77
2021/03/07 01:28:38;;;;;;;;;;;;;;;21.39;23.15;99115.53;5043203;28;1083;-76
2021/03/07 01:31:03;;;;;;;;;;;;;;;20.28;24.75;99131.06;5061220;28;904;-77
2021/03/07 01:33:28;;;;;;;;;;;;;;;21.44;23.41;99115.88;5060460;28;919;-77
2021/03/07 01:35:54;;;;;;;;;;;;;;;22.51;21.53;99114.00;5061067;28;725;-77
2021/03/07 01:38:19;;;;;;;;;;;;;;;22.50;21.55;99118.06;5060611;28;1975;-77
2021/03/07 01:40:46;;;;;;;;;;;;;;;22.26;21.57;99108.63;5060781;28;1115;-76
2021/03/07 01:43:11;;;;;;;;;;;;;;;21.39;23.02;99105.00;5043060;28;874;-77
2021/03/07 01:45:37;;;;;;;;;;;;;;;21.41;23.02;99098.94;5060943;28;857;-77
2021/03/07 01:48:03;;;;;;;;;;;;;;;21.61;22.98;99108.47;5060443;28;674;-76
2021/03/07 01:50:30;;;;;;;;;;;;;;;21.52;23.01;99105.31;5060435;28;740;-76
2021/03/07 01:52:55;;;;;;;;;;;;;;;20.86;23.78;99113.84;5060696;28;646;-77
2021/03/07 01:55:22;;;;;;;;;;;;;;;20.36;24.28;99097.09;5060139;28;932;-77
2021/03/07 01:57:48;;;;;;;;;;;;;;;20.84;23.80;99110.66;5059994;28;888;-76
2021/03/07 02:00:14;;;;;;;;;;;;;;;20.60;23.93;99116.00;5060202;28;1971;-76
2021/03/07 02:02:39;;;;;;;;;;;;;;;20.71;24.00;99119.59;5060892;28;610;-76
2021/03/07 02:05:09;;;;;;;;;;;;;;;21.63;22.67;99108.84;5060191;28;638;-77
2021/03/07 02:07:34;;;;;;;;;;;;;;;21.08;23.45;99115.31;5060200;28;944;-77
2021/03/07 02:10:00;;;;;;;;;;;;;;;20.99;23.51;99115.81;5059882;28;889;-76
2021/03/07 02:12:25;;;;;;;;;;;;;;;20.95;23.46;99111.38;5043347;28;1005;-77
2021/03/07 02:14:51;;;;;;;;;;;;;;;21.16;23.16;99111.22;5043068;28;697;-76
2021/03/07 02:17:17;;;;;;;;;;;;;;;21.44;22.53;99106.59;5043409;28;669;-76
2021/03/07 02:19:42;;;;;;;;;;;;;;;20.58;23.81;99107.16;5042754;28;1930;-77
2021/03/07 02:22:10;;;;;;;;;;;;;;;20.58;24.14;99097.84;5042885;28;944;-77
2021/03/07 02:24:35;;;;;;;;;;;;;;;20.73;23.81;99100.19;5059985;28;956;-76
2021/03/07 02:27:01;;;;;;;;;;;;;;;21.19;23.14;99104.75;5060613;28;942;-76
2021/03/07 02:29:26;;;;;;;;;;;;;;;20.52;24.13;99105.94;5049260;28;646;-77
2021/03/07 02:31:52;;;;;;;;;;;;;;;21.36;22.89;99097.38;5066784;28;713;-77
2021/03/07 02:34:26;;;;;;;;;;;;;;;21.38;22.75;99097.75;5066843;28;674;-77
2021/03/07 02:36:53;;;;;;;;;;;;;;;20.44;23.95;99098.69;5067158;28;648;-77
2021/03/07 02:39:18;;;;;;;;;;;;;;;20.52;24.07;99103.09;5048767;28;1961;-76
2021/03/07 02:41:44;;;;;;;;;;;;;;;20.57;23.85;99102.69;5066591;28;805;-77
2021/03/07 02:44:11;;;;;;;;;;;;;;;20.88;23.36;99105.75;5066767;28;825;-76
2021/03/07 02:46:37;;;;;;;;;;;;;;;21.05;23.15;99110.50;5049551;28;665;-76
2021/03/07 02:49:02;;;;;;;;;;;;;;;22.05;22.03;99092.63;5049206;28;682;-77
2021/03/07 02:51:32;;;;;;;;;;;;;;;22.19;21.89;99095.34;5067123;28;626;-77
2021/03/07 02:53:58;;;;;;;;;;;;;;;22.46;21.48;99094.63;5065954;28;1006;-77
2021/03/07 02:56:23;;;;;;;;;;;;;;;22.19;21.44;99097.38;5066210;28;927;-76
2021/03/07 02:58:49;;;;;;;;;;;;;;;21.75;22.04;99097.00;5048834;28;2001;-77
2021/03/07 03:01:16;;;;;;;;;;;;;;;21.74;22.21;99101.06;5049773;28;630;-76
2021/03/07 03:03:59;;;;;;;;;;;;;;;21.91;22.26;99095.63;5048879;28;622;-77
2021/03/07 03:06:27;;;;;;;;;;;;;;;22.41;21.30;99095.09;5066468;28;885;-76
2021/03/07 03:08:53;;;;;;;;;;;;;;;22.62;21.12;99087.09;5048595;28;876;-77
2021/03/07 03:11:23;;;;;;;;;;;;;;;21.94;21.66;99098.44;5066548;28;677;-77
2021/03/07 03:13:49;;;;;;;;;;;;;;;21.62;22.28;99093.09;5066267;28;694;-76
2021/03/07 03:16:14;;;;;;;;;;;;;;;21.82;22.07;99094.09;5066471;28;670;-77
2021/03/07 03:18:40;;;;;;;;;;;;;;;21.51;22.54;99098.06;5065968;28;1902;-76
2021/03/07 03:21:08;;;;;;;;;;;;;;;21.23;22.64;99099.03;5065778;28;980;-76
2021/03/07 03:23:33;;;;;;;;;;;;;;;20.50;23.90;99086.56;5048476;28;866;-77
2021/03/07 03:25:59;;;;;;;;;;;;;;;20.85;23.09;99098.09;5066779;28;988;-77
2021/03/07 03:28:24;;;;;;;;;;;;;;;20.60;23.45;99095.41;5066180;28;842;-76
2021/03/07 03:30:50;;;;;;;;;;;;;;;20.70;23.56;99095.34;5082601;28;725;-77
2021/03/07 03:33:15;;;;;;;;;;;;;;;21.17;22.82;99084.53;5065966;28;840;-77
2021/03/07 03:35:41;;;;;;;;;;;;;;;21.54;22.13;99089.50;5066130;28;914;-77
2021/03/07 03:38:06;;;;;;;;;;;;;;;21.10;22.70;99090.25;5065484;28;1963;-77
2021/03/07 03:40:32;;;;;;;;;;;;;;;21.43;22.18;99088.00;5062835;28;862;-76
2021/03/07 03:42:58;;;;;;;;;;;;;;;20.47;23.87;99095.09;5046016;28;682;-77
2021/03/07 03:45:24;;;;;;;;;;;;;;;20.62;23.31;99099.44;5063056;28;736;-76
2021/03/07 03:47:52;;;;;;;;;;;;;;;20.63;23.63;99089.75;5045523;28;974;-76
2021/03/07 03:50:17;;;;;;;;;;;;;;;20.71;23.41;99091.31;5045110;28;1053;-76
2021/03/07 03:52:43;;;;;;;;;;;;;;;20.97;22.91;99087.09;5061895;28;909;-76
2021/03/07 03:55:10;;;;;;;;;;;;;;;20.75;23.62;99092.09;5061956;28;897;-77
2021/03/07 03:57:35;;;;;;;;;;;;;;;21.11;22.83;99085.41;5045915;28;687;-77
2021/03/07 04:00:01;;;;;;;;;;;;;;;21.42;22.38;99083.56;5061759;28;1972;-76
2021/03/07 04:02:27;;;;;;;;;;;;;;;21.40;22.32;99081.16;5062871;28;741;-76
2021/03/07 04:04:53;;;;;;;;;;;;;;;21.17;22.51;99084.53;5061500;28;959;-76
2021/03/07 04:07:19;;;;;;;;;;;;;;;21.33;22.63;99084.81;5062315;28;907;-76
2021/03/07 04:09:44;;;;;;;;;;;;;;;20.95;23.28;99083.09;5045017;28;849;-76
2021/03/07 04:12:10;;;;;;;;;;;;;;;20.18;24.00;99074.56;5061846;28;691;-77
2021/03/07 04:14:35;;;;;;;;;;;;;;;20.73;23.33;99083.22;5062179;28;637;-76
2021/03/07 04:17:02;;;;;;;;;;;;;;;21.58;21.96;99075.31;5045021;28;660;-76
2021/03/07 04:19:28;;;;;;;;;;;;;;;21.29;22.56;99081.19;5044727;28;1902;-76
2021/03/07 04:21:53;;;;;;;;;;;;;;;21.06;23.04;99078.16;5044654;28;870;-77
2021/03/07 04:24:19;;;;;;;;;;;;;;;20.94;23.02;99087.13;5044895;28;958;-76
2021/03/07 04:26:44;;;;;;;;;;;;;;;22.11;21.68;99079.63;5062385;28;674;-76
2021/03/07 04:29:10;;;;;;;;;;;;;;;22.33;21.17;99075.34;5044556;28;729;-76
2021/03/07 04:31:35;;;;;;;;;;;;;;;22.56;20.87;99077.47;5062389;28;697;-77
2021/03/07 04:34:19;;;;;;;;;;;;;;;22.61;20.87;99074.16;5044248;28;1000;-76
2021/03/07 04:36:48;;;;;;;;;;;;;;;22.48;21.17;99080.81;5046601;28;908;-75
2021/03/07 04:39:14;;;;;;;;;;;;;;;21.52;22.04;99071.34;5057997;28;1906;-75
2021/03/07 04:41:39;;;;;;;;;;;;;;;21.53;22.25;99078.59;5061921;28;630;-76
2021/03/07 04:44:05;;;;;;;;;;;;;;;21.76;22.13;99080.78;5061644;28;618;-76
2021/03/07 04:46:30;;;;;;;;;;;;;;;22.15;21.67;99079.59;5061633;28;570;-77
2021/03/07 04:48:56;;;;;;;;;;;;;;;22.33;21.42;99075.34;5061153;28;972;-75
2021/03/07 04:51:21;;;;;;;;;;;;;;;22.56;20.89;99076.66;5060895;28;872;-76
2021/03/07 04:53:47;;;;;;;;;;;;;;;22.19;21.31;99074.72;5061629;28;1067;-76
2021/03/07 04:56:12;;;;;;;;;;;;;;;21.69;21.86;99070.34;5061758;28;717;-76
2021/03/07 04:58:38;;;;;;;;;;;;;;;21.61;22.01;99071.66;5061165;28;1898;-76
2021/03/07 05:01:04;;;;;;;;;;;;;;;22.02;22.08;99065.13;5061639;28;663;-77
2021/03/07 05:03:29;;;;;;;;;;;;;;;22.27;21.57;99065.66;5061353;28;954;-76
2021/03/07 05:05:55;;;;;;;;;;;;;;;22.49;21.21;99059.75;5061707;28;909;-76
2021/03/07 05:08:20;;;;;;;;;;;;;;;22.02;21.71;99048.13;5043937;28;1005;-76
2021/03/07 05:10:46;;;;;;;;;;;;;;;21.63;22.20;99060.69;5061237;28;654;-76
2021/03/07 05:13:11;;;;;;;;;;;;;;;21.78;22.08;99053.66;5061095;28;654;-76
2021/03/07 05:15:37;;;;;;;;;;;;;;;21.46;22.49;99061.69;5061180;28;688;-77
2021/03/07 05:18:03;;;;;;;;;;;;;;;21.25;22.61;99057.78;5060747;28;992;-76
2021/03/07 05:20:28;;;;;;;;;;;;;;;20.44;24.15;99070.41;5061014;28;1917;-75
2021/03/07 05:22:54;;;;;;;;;;;;;;;20.23;24.03;99072.13;5060875;28;1087;-76
2021/03/07 05:25:19;;;;;;;;;;;;;;;21.46;22.42;99078.69;5060830;28;712;-76
2021/03/07 05:27:45;;;;;;;;;;;;;;;21.32;22.81;99074.72;5061193;28;599;-76
2021/03/07 05:30:10;;;;;;;;;;;;;;;21.20;22.68;99082.91;5060732;28;633;-76
2021/03/07 05:32:36;;;;;;;;;;;;;;;21.01;23.09;99093.53;5060458;28;959;-76
2021/03/07 05:35:01;;;;;;;;;;;;;;;21.37;22.58;99081.19;5060818;28;817;-76
2021/03/07 05:37:27;;;;;;;;;;;;;;;20.79;23.43;99097.75;5060747;28;842;-76
2021/03/07 05:39:52;;;;;;;;;;;;;;;21.32;22.64;99085.25;5060460;28;1891;-76
2021/03/07 05:42:18;;;;;;;;;;;;;;;20.80;23.18;99093.69;5060581;28;646;-76
2021/03/07 05:44:43;;;;;;;;;;;;;;;21.21;23.04;99087.34;5060572;28;639;-77
2021/03/07 05:47:09;;;;;;;;;;;;;;;22.09;21.97;99085.72;5060415;28;868;-76
2021/03/07 05:49:34;;;;;;;;;;;;;;;22.38;21.27;99090.25;5059426;28;822;-76
2021/03/07 05:52:00;;;;;;;;;;;;;;;22.35;21.31;99098.38;5060370;28;1012;-77
2021/03/07 05:54:25;;;;;;;;;;;;;;;22.53;21.17;99094.50;5060771;28;638;-76
2021/03/07 05:56:51;;;;;;;;;;;;;;;22.54;21.15;99093.31;5060565;28;614;-77
2021/03/07 05:59:16;;;;;;;;;;;;;;;22.48;21.24;99098.63;5059367;28;1902;-76
2021/03/07 06:01:42;;;;;;;;;;;;;;;21.88;21.95;99093.66;5059758;28;863;-76
2021/03/07 06:04:25;;;;;;;;;;;;;;;21.75;22.38;99099.81;5059492;28;843;-76
2021/03/07 06:07:05;;;;;;;;;;;;;;;22.11;21.81;99090.97;5060439;28;622;-77
2021/03/07 06:09:30;;;;;;;;;;;;;;;22.23;21.45;99093.28;5060118;28;646;-76
2021/03/07 06:11:57;;;;;;;;;;;;;;;22.44;21.37;99105.59;5060272;28;718;-76
2021/03/07 06:14:23;;;;;;;;;;;;;;;22.51;21.48;99102.66;5060048;28;590;-77
2021/03/07 06:17:02;;;;;;;;;;;;;;;22.46;21.49;99101.09;5060599;28;875;-76
2021/03/07 06:19:28;;;;;;;;;;;;;;;21.95;21.79;99090.72;5059702;28;1918;-77
2021/03/07 06:21:54;;;;;;;;;;;;;;;21.66;22.05;99102.38;5059650;28;844;-76
2021/03/07 06:24:32;;;;;;;;;;;;;;;21.81;22.28;99098.16;5059825;28;651;-76
2021/03/07 06:27:08;;;;;;;;;;;;;;;22.17;21.63;99092.13;5043113;28;940;-76
2021/03/07 06:29:33;;;;;;;;;;;;;;;22.34;21.42;99093.94;5060093;28;648;-76
2021/03/07 06:31:59;;;;;;;;;;;;;;;22.51;21.47;99096.97;5058236;28;905;-76
2021/03/07 06:34:33;;;;;;;;;;;;;;;22.45;21.22;99098.69;5059569;28;797;-76
2021/03/07 06:37:03;;;;;;;;;;;;;;;21.68;22.13;99099.91;5060278;28;587;-77
2021/03/07 06:39:28;;;;;;;;;;;;;;;21.53;22.68;99095.59;5059633;28;1988;-77
2021/03/07 06:42:00;;;;;;;;;;;;;;;21.67;22.18;99094.66;5060055;28;708;-76
2021/03/07 06:44:26;;;;;;;;;;;;;;;21.44;22.86;99092.44;5059771;28;622;-76
2021/03/07 06:46:51;;;;;;;;;;;;;;;20.10;24.70;99099.22;5059655;28;939;-76
2021/03/07 06:49:34;;;;;;;;;;;;;;;21.46;23.05;99092.84;5059425;28;901;-76
2021/03/07 06:52:10;;;;;;;;;;;;;;;21.67;22.38;99098.31;5059748;28;980;-76
2021/03/07 06:54:35;;;;;;;;;;;;;;;21.49;22.58;99094.81;5059565;28;697;-77
2021/03/07 06:57:01;;;;;;;;;;;;;;;21.29;22.87;99109.50;5059763;28;1189;-76
2021/03/07 06:59:27;;;;;;;;;;;;;;;21.45;22.69;99105.34;5059561;28;1985;-76
2021/03/07 07:01:53;;;;;;;;;;;;;;;20.81;23.79;99107.41;5059384;28;951;-76
2021/03/07 07:04:24;;;;;;;;;;;;;;;20.53;24.20;99107.56;5059247;28;971;-76
2021/03/07 07:07:00;;;;;;;;;;;;;;;20.49;24.08;99089.81;5059593;28;856;-76
2021/03/07 07:09:25;;;;;;;;;;;;;;;21.59;22.71;99099.56;5059419;28;705;-76
2021/03/07 07:11:51;;;;;;;;;;;;;;;21.45;22.76;99088.38;5060132;28;681;-76
2021/03/07 07:14:30;;;;;;;;;;;;;;;21.00;23.52;99091.13;5061427;28;669;-77
2021/03/07 07:16:56;;;;;;;;;;;;;;;21.15;23.52;99089.81;5063205;28;925;-77
2021/03/07 07:19:21;;;;;;;;;;;;;;;21.25;23.00;99094.59;5062745;28;1910;-77
2021/03/07 07:21:47;;;;;;;;;;;;;;;21.21;22.94;99090.97;5063798;28;934;-76
2021/03/07 07:24:13;;;;;;;;;;;;;;;19.94;24.95;99087.56;5063179;28;865;-76
2021/03/07 07:26:38;;;;;;;;;;;;;;;20.53;24.32;99082.94;5063288;28;626;-76
2021/03/07 07:29:04;;;;;;;;;;;;;;;20.39;24.46;99080.13;5063101;28;642;-77
2021/03/07 07:31:40;;;;;;;;;;;;;;;21.03;23.50;99084.63;5063407;28;891;-76
2021/03/07 07:34:25;;;;;;;;;;;;;;;21.19;23.29;99073.63;5061782;28;938;-76
2021/03/07 07:37:35;;;;;;;;;;;;;;;21.08;23.34;99064.38;5062795;28;951;-77
2021/03/07 07:40:01;;;;;;;;;;;;;;;20.23;24.55;99077.78;5062069;28;1969;-76
2021/03/07 07:42:26;;;;;;;;;;;;;;;20.69;24.00;99082.44;5063353;28;634;-77
2021/03/07 07:44:56;;;;;;;;;;;;;;;20.89;23.54;99076.25;5062772;28;610;-76
2021/03/07 07:47:21;;;;;;;;;;;;;;;21.74;22.43;99072.72;5062616;28;952;-76
2021/03/07 07:49:48;;;;;;;;;;;;;;;22.19;21.72;99069.03;5062450;28;1038;-77
2021/03/07 07:52:29;;;;;;;;;;;;;;;22.31;21.54;99072.09;5062717;28;961;-76
2021/03/07 07:54:58;;;;;;;;;;;;;;;22.35;21.63;99067.19;5062578;28;618;-77
2021/03/07 07:57:36;;;;;;;;;;;;;;;22.62;21.27;99069.28;5062851;28;635;-76
2021/03/07 08:00:09;;;;;;;;;;;;;;;21.84;22.25;99060.47;5062247;28;1969;-76
2021/03/07 08:02:44;;;;;;;;;;;;;;;21.59;22.68;99059.94;5028499;28;1252;-76
2021/03/07 08:05:22;;;;;;;;;;;;;;;21.61;22.58;99051.03;5061898;28;976;-76
2021/03/07 08:07:57;;;;;;;;;;;;;;;22.15;21.92;99054.91;5062409;28;709;-76
2021/03/07 08:10:41;;;;;;;;;;;;;;;22.35;21.50;99043.72;5062251;28;709;-76
2021/03/07 08:13:08;;;;;;;;;;;;;;;22.18;21.98;99039.88;5062421;28;653;-76
2021/03/07 08:15:37;;;;;;;;;;;;;;;22.64;21.04;99044.13;5062329;28;614;-76
2021/03/07 08:18:03;;;;;;;;;;;;;;;22.53;21.13;99043.47;5061904;28;987;-77
2021/03/07 08:20:37;;;;;;;;;;;;;;;22.00;22.13;99039.25;5061756;28;1921;-76
2021/03/07 08:23:05;;;;;;;;;;;;;;;21.63;22.32;99038.03;5062095;28;694;-76
2021/03/07 08:25:46;;;;;;;;;;;;;;;21.38;22.75;99026.97;5061446;28;630;-76
2021/03/07 08:28:37;;;;;;;;;;;;;;;21.96;22.32;99032.81;5062117;28;758;-77
2021/03/07 08:31:06;;;;;;;;;;;;;;;22.26;21.83;99024.38;5054808;28;1000;-76
2021/03/07 08:33:32;;;;;;;;;;;;;;;22.19;21.79;99027.31;5044005;28;1129;-76
2021/03/07 08:36:10;;;;;;;;;;;;;;;22.51;21.61;99029.72;5061575;28;854;-76
2021/03/07 08:38:35;;;;;;;;;;;;;;;22.43;21.34;99021.72;5061534;28;1938;-76
2021/03/07 08:41:01;;;;;;;;;;;;;;;22.53;21.27;99020.78;5061946;28;630;-76
2021/03/07 08:43:28;;;;;;;;;;;;;;;22.67;20.99;99020.56;5061403;28;726;-76
2021/03/07 08:46:03;;;;;;;;;;;;;;;22.42;21.31;99020.13;5061761;28;1078;-76
2021/03/07 08:48:29;;;;;;;;;;;;;;;21.78;22.16;99002.69;5061091;28;869;-76
2021/03/07 08:50:54;;;;;;;;;;;;;;;21.58;22.60;99001.69;5061336;28;903;-76
2021/03/07 08:53:25;;;;;;;;;;;;;;;21.84;22.13;98992.47;5061539;28;932;-76
2021/03/07 08:55:51;;;;;;;;;;;;;;;22.21;21.50;98988.00;5061574;28;650;-76
2021/03/07 08:58:19;;;;;;;;;;;;;;;22.23;21.84;98987.59;5061242;28;1965;-76
2021/03/07 09:00:45;;;;;;;;;;;;;;;22.30;21.39;98995.97;5061382;28;1198;-76
2021/03/07 09:03:14;;;;;;;;;;;;;;;22.44;21.10;98990.13;5060906;28;1101;-77
2021/03/07 09:05:40;;;;;;;;;;;;;;;22.61;21.02;98983.38;5044222;28;874;-76
2021/03/07 09:08:05;;;;;;;;;;;;;;;22.23;21.52;98979.88;5061263;28;896;-76
2021/03/07 09:10:31;;;;;;;;;;;;;;;21.90;22.04;98972.97;5061180;28;701;-76
2021/03/07 09:13:05;;;;;;;;;;;;;;;21.48;22.69;98975.09;5060930;28;662;-76
2021/03/07 09:15:30;;;;;;;;;;;;;;;21.94;22.06;98961.59;5061175;28;709;-76
2021/03/07 09:17:56;;;;;;;;;;;;;;;22.16;21.95;98957.28;5043395;28;1078;-77
2021/03/07 09:20:21;;;;;;;;;;;;;;;22.49;21.22;98963.31;5060528;28;1914;-76
2021/03/07 09:22:47;;;;;;;;;;;;;;;22.69;20.85;98950.03;5061013;28;877;-76
2021/03/07 09:25:15;;;;;;;;;;;;;;;22.07;21.59;98959.81;5060870;28;678;-75
2021/03/07 09:27:42;;;;;;;;;;;;;;;21.55;22.41;98954.38;5061016;28;709;-77
2021/03/07 09:30:07;;;;;;;;;;;;;;;21.53;22.34;98942.69;5060647;28;753;-76
2021/03/07 09:32:39;;;;;;;;;;;;;;;22.03;21.77;98944.91;5060741;28;1015;-77
2021/03/07 09:35:23;;;;;;;;;;;;;;;22.25;21.56;98948.25;5060414;28;798;-77
2021/03/07 09:38:08;;;;;;;;;;;;;;;22.43;21.47;98942.31;5060626;28;737;-76
2021/03/07 09:40:34;;;;;;;;;;;;;;;22.61;21.14;98934.34;5060845;28;1926;-76
2021/03/07 09:43:06;;;;;;;;;;;;;;;22.65;21.16;98937.94;5060393;28;746;-76
2021/03/07 09:45:32;;;;;;;;;;;;;;;22.15;21.43;98935.84;5060768;28;693;-76
2021/03/07 09:47:57;;;;;;;;;;;;;;;21.59;22.41;98929.66;5060155;28;803;-76
2021/03/07 09:50:23;;;;;;;;;;;;;;;21.51;22.28;98933.81;5060220;28;891;-77
2021/03/07 09:52:48;;;;;;;;;;;;;;;21.95;21.82;98923.53;5060492;28;807;-77
2021/03/07 09:55:22;;;;;;;;;;;;;;;22.38;21.66;98922.94;5060639;28;668;-77
2021/03/07 09:57:56;;;;;;;;;;;;;;;22.32;21.22;98914.94;5060493;28;654;-77
2021/03/07 10:00:25;;;;;;;;;;;;;;;22.38;21.39;98911.59;5060191;28;1910;-77
2021/03/07 10:02:50;;;;;;;;;;;;;;;22.49;21.17;98906.59;5060243;28;1008;-76
2021/03/07 10:05:19;;;;;;;;;;;;;;;22.21;21.38;98902.16;5059957;28;892;-76
2021/03/07 10:07:44;;;;;;;;;;;;;;;21.79;22.23;98905.13;5060425;28;902;-77
2021/03/07 10:10:21;;;;;;;;;;;;;;;21.57;22.15;98903.78;5059599;28;610;-76
2021/03/07 10:12:55;;;;;;;;;;;;;;;21.92;21.95;98901.75;5060141;28;673;-76
2021/03/07 10:15:26;;;;;;;;;;;;;;;22.31;21.27;98889.84;5060032;28;665;-77
2021/03/07 10:17:52;;;;;;;;;;;;;;;22.44;21.42;98882.34;5059644;28;926;-76
2021/03/07 10:20:18;;;;;;;;;;;;;;;22.58;21.29;98875.63;5042460;28;1983;-76
2021/03/07 10:22:44;;;;;;;;;;;;;;;22.54;21.42;98875.72;5060206;28;980;-77
2021/03/07 10:25:29;;;;;;;;;;;;;;;22.42;21.20;98867.78;5059895;28;619;-77
2021/03/07 10:28:02;;;;;;;;;;;;;;;21.59;22.16;98862.47;5042960;28;706;-77
2021/03/07 10:30:31;;;;;;;;;;;;;;;21.48;22.35;98867.47;5059242;28;642;-77
2021/03/07 10:33:10;;;;;;;;;;;;;;;21.95;21.92;98864.03;5058820;28;919;-76
2021/03/07 10:35:36;;;;;;;;;;;;;;;22.28;21.34;98860.34;5059664;28;904;-76
2021/03/07 10:38:02;;;;;;;;;;;;;;;22.29;21.30;98859.09;5059895;28;753;-77
2021/03/07 10:40:31;;;;;;;;;;;;;;;22.54;21.25;98849.38;5059967;28;1910;-76
2021/03/07 10:43:03;;;;;;;;;;;;;;;22.16;21.40;98843.91;5059341;28;718;-76
2021/03/07 10:45:29;;;;;;;;;;;;;;;21.68;22.00;98839.31;5042374;28;784;-76
2021/03/07 10:48:23;;;;;;;;;;;;;;;21.67;22.04;98834.09;5058931;28;1124;-76
2021/03/07 10:50:49;;;;;;;;;;;;;;;22.01;21.75;98826.28;5050702;28;1325;-76
2021/03/07 10:53:16;;;;;;;;;;;;;;;22.25;21.30;98824.31;5063853;28;674;-76
2021/03/07 10:55:48;;;;;;;;;;;;;;;22.44;21.32;98824.84;5063715;28;629;-77
2021/03/07 10:58:14;;;;;;;;;;;;;;;22.58;21.13;98824.56;5063578;28;682;-76
2021/03/07 11:00:39;;;;;;;;;;;;;;;22.41;21.18;98826.50;5063475;28;1975;-76
2021/03/07 11:03:05;;;;;;;;;;;;;;;21.83;22.01;98808.75;5063095;28;1069;-76
2021/03/07 11:05:30;;;;;;;;;;;;;;;21.50;22.51;98802.75;5062608;28;947;-76
2021/03/07 11:07:56;;;;;;;;;;;;;;;21.87;21.94;98789.69;5063345;28;953;-76
2021/03/07 11:10:22;;;;;;;;;;;;;;;22.35;21.55;98791.38;5063414;28;685;-76
2021/03/07 11:12:47;;;;;;;;;;;;;;;22.42;21.26;98788.38;5063274;28;626;-76
2021/03/07 11:15:13;;;;;;;;;;;;;;;22.59;20.95;98786.50;5063246;28;784;-76
2021/03/07 11:17:38;;;;;;;;;;;;;;;22.50;21.15;98777.75;5062890;28;947;-76
2021/03/07 11:20:05;;;;;;;;;;;;;;;21.86;21.98;98768.22;5062785;28;2001;-76
2021/03/07 11:22:30;;;;;;;;;;;;;;;21.66;22.11;98767.31;5063192;28;838;-76
2021/03/07 11:24:56;;;;;;;;;;;;;;;21.46;22.46;98768.03;5063418;28;622;-75
2021/03/07 11:27:21;;;;;;;;;;;;;;;22.13;21.74;98758.94;5063160;28;599;-76
2021/03/07 11:29:46;;;;;;;;;;;;;;;22.20;21.58;98753.94;5063134;28;663;-76
2021/03/07 11:32:12;;;;;;;;;;;;;;;22.48;21.16;98757.50;5045556;28;802;-76
2021/03/07 11:34:37;;;;;;;;;;;;;;;22.56;20.96;98747.63;5061809;28;818;-76
2021/03/07 11:37:03;;;;;;;;;;;;;;;22.59;21.01;98746.78;5063132;28;854;-76
2021/03/07 11:39:28;;;;;;;;;;;;;;;22.76;20.81;98733.47;5062956;28;1995;-76
2021/03/07 11:41:54;;;;;;;;;;;;;;;22.32;21.16;98744.81;5063292;28;654;-76
2021/03/07 11:44:19;;;;;;;;;;;;;;;21.78;21.86;98744.09;5062811;28;674;-76
2021/03/07 11:46:45;;;;;;;;;;;;;;;21.64;22.18;98728.09;5062524;28;834;-76
2021/03/07 11:49:10;;;;;;;;;;;;;;;21.74;22.17;98715.81;5062542;28;913;-76
2021/03/07 11:51:36;;;;;;;;;;;;;;;22.12;21.52;98728.97;5062564;28;1053;-76
2021/03/07 11:54:02;;;;;;;;;;;;;;;22.28;21.37;98726.28;5062905;28;606;-76
2021/03/07 11:56:27;;;;;;;;;;;;;;;22.53;21.28;98717.28;5062485;28;665;-76
2021/03/07 11:58:53;;;;;;;;;;;;;;;22.46;21.12;98703.25;5062135;28;1981;-75
2021/03/07 12:01:18;;;;;;;;;;;;;;;22.21;21.25;98698.84;5060955;28;1039;-76
2021/03/07 12:03:44;;;;;;;;;;;;;;;21.66;22.43;98703.00;5061875;28;847;-76
2021/03/07 12:06:09;;;;;;;;;;;;;;;21.77;21.83;98703.63;5062692;28;651;-76
2021/03/07 12:08:35;;;;;;;;;;;;;;;21.68;22.36;98694.88;5061860;28;844;-76
2021/03/07 12:11:00;;;;;;;;;;;;;;;22.05;21.70;98690.19;5062264;28;721;-75
2021/03/07 12:13:26;;;;;;;;;;;;;;;22.31;21.36;98697.84;5061958;28;642;-76
2021/03/07 12:15:52;;;;;;;;;;;;;;;22.52;21.06;98690.19;5062110;28;902;-76
2021/03/07 12:18:17;;;;;;;;;;;;;;;22.64;20.94;98678.19;5061610;28;987;-76
2021/03/07 12:20:43;;;;;;;;;;;;;;;21.98;21.59;98673.34;5062095;28;1964;-76
2021/03/07 12:23:09;;;;;;;;;;;;;;;21.63;22.29;98674.72;5062000;28;709;-76
2021/03/07 12:25:34;;;;;;;;;;;;;;;21.67;22.34;98659.28;5061871;28;677;-76
2021/03/07 12:27:59;;;;;;;;;;;;;;;22.13;21.87;98657.72;5061871;28;658;-76
2021/03/07 12:30:25;;;;;;;;;;;;;;;22.52;21.17;98661.81;5061756;28;938;-75
2021/03/07 12:32:51;;;;;;;;;;;;;;;22.50;21.09;98658.63;5061439;28;904;-75
2021/03/07 12:35:19;;;;;;;;;;;;;;;22.42;21.20;98657.16;5061738;28;910;-76
2021/03/07 12:37:48;;;;;;;;;;;;;;;21.73;21.99;98646.22;5061752;28;647;-76
2021/03/07 12:40:14;;;;;;;;;;;;;;;21.62;22.31;98639.16;5061662;28;1961;-76
2021/03/07 12:42:39;;;;;;;;;;;;;;;21.68;22.19;98635.38;5061638;28;725;-76
2021/03/07 12:45:05;;;;;;;;;;;;;;;22.14;21.59;98636.63;5061247;28;917;-76
2021/03/07 12:47:30;;;;;;;;;;;;;;;22.36;21.32;98626.47;5061280;28;920;-75
2021/03/07 12:49:56;;;;;;;;;;;;;;;22.45;21.08;98627.94;5061368;28;845;-76
2021/03/07 12:52:21;;;;;;;;;;;;;;;22.55;21.07;98621.25;5061384;28;650;-76
2021/03/07 12:54:47;;;;;;;;;;;;;;;22.00;21.65;98625.53;5061301;28;982;-76
2021/03/07 12:57:12;;;;;;;;;;;;;;;22.00;21.42;98608.53;5061367;28;694;-76
2021/03/07 12:59:38;;;;;;;;;;;;;;;21.79;22.04;98621.84;5060684;28;1901;-76
2021/03/07 13:02:03;;;;;;;;;;;;;;;21.85;21.75;98611.59;5061036;28;906;-75
2021/03/07 13:04:29;;;;;;;;;;;;;;;22.23;21.75;98617.03;5061076;28;970;-76
2021/03/07 13:06:55;;;;;;;;;;;;;;;22.47;20.95;98608.44;5061787;28;925;-76